sensor_id;sensor_type;location;lat;lon;timestamp;temperature;humidity
49777;DHT22;35673;51.482;7.436;2023-04-19T00:01:32;11.70;86.20
49777;DHT22;35673;51.482;7.436;2023-04-19T00:03:58;11.60;85.20
49777;DHT22;35673;51.482;7.436;2023-04-19T00:06:23;11.60;86.30
49777;DHT22;35673;51.482;7.436;2023-04-19T00:08:50;11.60;86.30
49777;DHT22;35673;51.482;7.436;2023-04-19T00:11:16;11.60;86.20
49777;DHT22;35673;51.482;7.436;2023-04-19T00:13:41;11.60;85.60
49777;DHT22;35673;51.482;7.436;2023-04-19T00:16:07;11.60;86.10
49777;DHT22;35673;51.482;7.436;2023-04-19T00:18:32;11.60;86.40
49777;DHT22;35673;51.482;7.436;2023-04-19T00:20:58;11.60;87.90
49777;DHT22;35673;51.482;7.436;2023-04-19T00:23:24;11.60;87.80
49777;DHT22;35673;51.482;7.436;2023-04-19T00:25:50;11.50;87.50
49777;DHT22;35673;51.482;7.436;2023-04-19T00:28:16;11.50;88.00
49777;DHT22;35673;51.482;7.436;2023-04-19T00:30:41;11.50;88.10
49777;DHT22;35673;51.482;7.436;2023-04-19T00:33:07;11.40;86.80
49777;DHT22;35673;51.482;7.436;2023-04-19T00:35:37;11.40;88.20
49777;DHT22;35673;51.482;7.436;2023-04-19T00:38:03;11.40;89.40
49777;DHT22;35673;51.482;7.436;2023-04-19T00:40:28;11.40;88.00
49777;DHT22;35673;51.482;7.436;2023-04-19T00:42:55;11.40;88.90
49777;DHT22;35673;51.482;7.436;2023-04-19T00:45:21;11.30;89.00
49777;DHT22;35673;51.482;7.436;2023-04-19T00:47:46;11.40;89.70
49777;DHT22;35673;51.482;7.436;2023-04-19T00:50:12;11.40;89.60
49777;DHT22;35673;51.482;7.436;2023-04-19T00:52:37;11.40;89.90
49777;DHT22;35673;51.482;7.436;2023-04-19T00:55:04;11.40;89.60
49777;DHT22;35673;51.482;7.436;2023-04-19T00:57:30;11.50;90.10
49777;DHT22;35673;51.482;7.436;2023-04-19T00:59:56;11.50;90.10
49777;DHT22;35673;51.482;7.436;2023-04-19T01:02:22;11.50;89.90
49777;DHT22;35673;51.482;7.436;2023-04-19T01:04:47;11.50;89.70
49777;DHT22;35673;51.482;7.436;2023-04-19T01:07:13;11.50;89.90
49777;DHT22;35673;51.482;7.436;2023-04-19T01:09:45;11.50;90.00
49777;DHT22;35673;51.482;7.436;2023-04-19T01:12:10;11.60;89.70
49777;DHT22;35673;51.482;7.436;2023-04-19T01:14:36;11.60;90.10
49777;DHT22;35673;51.482;7.436;2023-04-19T01:17:01;11.60;90.00
49777;DHT22;35673;51.482;7.436;2023-04-19T01:19:27;11.50;89.90
49777;DHT22;35673;51.482;7.436;2023-04-19T01:21:52;11.60;89.90
49777;DHT22;35673;51.482;7.436;2023-04-19T01:24:20;11.50;88.50
49777;DHT22;35673;51.482;7.436;2023-04-19T01:26:46;11.50;88.60
49777;DHT22;35673;51.482;7.436;2023-04-19T01:29:12;11.50;89.30
49777;DHT22;35673;51.482;7.436;2023-04-19T01:31:37;11.50;89.30
49777;DHT22;35673;51.482;7.436;2023-04-19T01:34:03;11.50;89.30
49777;DHT22;35673;51.482;7.436;2023-04-19T01:36:28;11.50;89.10
49777;DHT22;35673;51.482;7.436;2023-04-19T01:38:54;11.60;88.10
49777;DHT22;35673;51.482;7.436;2023-04-19T01:41:20;11.50;87.90
49777;DHT22;35673;51.482;7.436;2023-04-19T01:43:47;11.50;87.20
49777;DHT22;35673;51.482;7.436;2023-04-19T01:46:12;11.50;87.50
49777;DHT22;35673;51.482;7.436;2023-04-19T01:48:37;11.50;87.30
49777;DHT22;35673;51.482;7.436;2023-04-19T01:51:03;11.50;86.70
49777;DHT22;35673;51.482;7.436;2023-04-19T01:53:29;11.50;86.70
49777;DHT22;35673;51.482;7.436;2023-04-19T01:55:54;11.50;86.10
49777;DHT22;35673;51.482;7.436;2023-04-19T01:58:20;11.50;86.00
49777;DHT22;35673;51.482;7.436;2023-04-19T02:00:46;11.50;85.90
49777;DHT22;35673;51.482;7.436;2023-04-19T02:03:12;11.50;85.90
49777;DHT22;35673;51.482;7.436;2023-04-19T02:05:38;11.50;85.70
49777;DHT22;35673;51.482;7.436;2023-04-19T02:08:04;11.50;85.30
49777;DHT22;35673;51.482;7.436;2023-04-19T02:10:29;11.50;85.20
49777;DHT22;35673;51.482;7.436;2023-04-19T02:12:55;11.50;84.80
49777;DHT22;35673;51.482;7.436;2023-04-19T02:15:21;11.50;84.50
49777;DHT22;35673;51.482;7.436;2023-04-19T02:17:46;11.50;84.30
49777;DHT22;35673;51.482;7.436;2023-04-19T02:20:12;11.50;84.40
49777;DHT22;35673;51.482;7.436;2023-04-19T02:22:37;11.50;85.10
49777;DHT22;35673;51.482;7.436;2023-04-19T02:25:03;11.50;83.80
49777;DHT22;35673;51.482;7.436;2023-04-19T02:27:30;11.50;84.00
49777;DHT22;35673;51.482;7.436;2023-04-19T02:29:59;11.50;83.80
49777;DHT22;35673;51.482;7.436;2023-04-19T02:32:24;11.40;83.30
49777;DHT22;35673;51.482;7.436;2023-04-19T02:34:50;11.40;82.70
49777;DHT22;35673;51.482;7.436;2023-04-19T02:37:16;11.40;82.80
49777;DHT22;35673;51.482;7.436;2023-04-19T02:39:42;11.40;82.60
49777;DHT22;35673;51.482;7.436;2023-04-19T02:42:08;11.40;82.40
49777;DHT22;35673;51.482;7.436;2023-04-19T02:44:34;11.40;81.80
49777;DHT22;35673;51.482;7.436;2023-04-19T02:47:00;11.40;82.50
49777;DHT22;35673;51.482;7.436;2023-04-19T02:49:26;11.40;81.90
49777;DHT22;35673;51.482;7.436;2023-04-19T02:51:51;11.30;81.20
49777;DHT22;35673;51.482;7.436;2023-04-19T02:54:17;11.30;81.40
49777;DHT22;35673;51.482;7.436;2023-04-19T02:56:42;11.30;81.30
49777;DHT22;35673;51.482;7.436;2023-04-19T02:59:08;11.30;81.20
49777;DHT22;35673;51.482;7.436;2023-04-19T03:01:33;11.30;80.80
49777;DHT22;35673;51.482;7.436;2023-04-19T03:03:59;11.30;80.60
49777;DHT22;35673;51.482;7.436;2023-04-19T03:06:24;11.30;80.60
49777;DHT22;35673;51.482;7.436;2023-04-19T03:08:50;11.30;80.50
49777;DHT22;35673;51.482;7.436;2023-04-19T03:11:16;11.30;80.50
49777;DHT22;35673;51.482;7.436;2023-04-19T03:13:42;11.30;80.20
49777;DHT22;35673;51.482;7.436;2023-04-19T03:16:08;11.30;80.50
49777;DHT22;35673;51.482;7.436;2023-04-19T03:18:34;11.30;80.40
49777;DHT22;35673;51.482;7.436;2023-04-19T03:21:00;11.30;80.40
49777;DHT22;35673;51.482;7.436;2023-04-19T03:23:26;11.20;80.00
49777;DHT22;35673;51.482;7.436;2023-04-19T03:25:52;11.20;80.20
49777;DHT22;35673;51.482;7.436;2023-04-19T03:28:17;11.20;80.10
49777;DHT22;35673;51.482;7.436;2023-04-19T03:30:43;11.20;79.70
49777;DHT22;35673;51.482;7.436;2023-04-19T03:33:08;11.10;79.70
49777;DHT22;35673;51.482;7.436;2023-04-19T03:35:34;11.20;79.70
49777;DHT22;35673;51.482;7.436;2023-04-19T03:38:00;11.20;79.70
49777;DHT22;35673;51.482;7.436;2023-04-19T03:40:25;11.20;79.20
49777;DHT22;35673;51.482;7.436;2023-04-19T03:42:51;11.10;78.80
49777;DHT22;35673;51.482;7.436;2023-04-19T03:45:17;11.10;78.80
49777;DHT22;35673;51.482;7.436;2023-04-19T03:47:44;11.10;78.70
49777;DHT22;35673;51.482;7.436;2023-04-19T03:50:10;11.10;78.10
49777;DHT22;35673;51.482;7.436;2023-04-19T03:52:35;11.00;77.60
49777;DHT22;35673;51.482;7.436;2023-04-19T03:55:01;10.90;77.40
49777;DHT22;35673;51.482;7.436;2023-04-19T03:57:26;10.80;77.50
49777;DHT22;35673;51.482;7.436;2023-04-19T03:59:52;10.80;76.90
49777;DHT22;35673;51.482;7.436;2023-04-19T04:02:17;10.70;76.60
49777;DHT22;35673;51.482;7.436;2023-04-19T04:04:43;10.70;76.50
49777;DHT22;35673;51.482;7.436;2023-04-19T04:07:09;10.60;76.60
49777;DHT22;35673;51.482;7.436;2023-04-19T04:09:34;10.60;76.40
49777;DHT22;35673;51.482;7.436;2023-04-19T04:12:00;10.60;76.20
49777;DHT22;35673;51.482;7.436;2023-04-19T04:14:25;10.60;76.20
49777;DHT22;35673;51.482;7.436;2023-04-19T04:16:51;10.60;76.10
49777;DHT22;35673;51.482;7.436;2023-04-19T04:19:16;10.50;75.80
49777;DHT22;35673;51.482;7.436;2023-04-19T04:21:44;10.50;76.00
49777;DHT22;35673;51.482;7.436;2023-04-19T04:24:09;10.50;76.00
49777;DHT22;35673;51.482;7.436;2023-04-19T04:26:35;10.50;75.80
49777;DHT22;35673;51.482;7.436;2023-04-19T04:29:04;10.50;75.30
49777;DHT22;35673;51.482;7.436;2023-04-19T04:31:29;10.50;75.30
49777;DHT22;35673;51.482;7.436;2023-04-19T04:33:56;10.50;75.30
49777;DHT22;35673;51.482;7.436;2023-04-19T04:36:21;10.50;75.30
49777;DHT22;35673;51.482;7.436;2023-04-19T04:38:47;10.50;75.20
49777;DHT22;35673;51.482;7.436;2023-04-19T04:41:12;10.50;75.30
49777;DHT22;35673;51.482;7.436;2023-04-19T04:43:38;10.40;75.30
49777;DHT22;35673;51.482;7.436;2023-04-19T04:46:04;10.50;75.10
49777;DHT22;35673;51.482;7.436;2023-04-19T04:48:29;10.40;74.90
49777;DHT22;35673;51.482;7.436;2023-04-19T04:50:56;10.40;75.00
49777;DHT22;35673;51.482;7.436;2023-04-19T04:53:22;10.40;75.00
49777;DHT22;35673;51.482;7.436;2023-04-19T04:55:48;10.40;75.00
49777;DHT22;35673;51.482;7.436;2023-04-19T04:58:13;10.30;75.00
49777;DHT22;35673;51.482;7.436;2023-04-19T05:00:39;10.30;75.20
49777;DHT22;35673;51.482;7.436;2023-04-19T05:03:04;10.40;75.30
49777;DHT22;35673;51.482;7.436;2023-04-19T05:05:30;10.30;75.10
49777;DHT22;35673;51.482;7.436;2023-04-19T05:07:56;10.30;75.00
49777;DHT22;35673;51.482;7.436;2023-04-19T05:10:21;10.30;75.00
49777;DHT22;35673;51.482;7.436;2023-04-19T05:12:47;10.30;74.80
49777;DHT22;35673;51.482;7.436;2023-04-19T05:15:12;10.30;74.80
49777;DHT22;35673;51.482;7.436;2023-04-19T05:17:38;10.30;74.70
49777;DHT22;35673;51.482;7.436;2023-04-19T05:20:04;10.40;74.50
49777;DHT22;35673;51.482;7.436;2023-04-19T05:22:30;10.40;74.00
49777;DHT22;35673;51.482;7.436;2023-04-19T05:24:56;10.30;74.00
49777;DHT22;35673;51.482;7.436;2023-04-19T05:27:21;10.30;73.70
49777;DHT22;35673;51.482;7.436;2023-04-19T05:29:47;10.30;73.50
49777;DHT22;35673;51.482;7.436;2023-04-19T05:32:13;10.20;73.10
49777;DHT22;35673;51.482;7.436;2023-04-19T05:34:38;10.20;73.30
49777;DHT22;35673;51.482;7.436;2023-04-19T05:37:04;10.10;73.20
49777;DHT22;35673;51.482;7.436;2023-04-19T05:39:29;10.10;73.40
49777;DHT22;35673;51.482;7.436;2023-04-19T05:41:55;10.10;73.50
49777;DHT22;35673;51.482;7.436;2023-04-19T05:44:21;10.20;73.60
49777;DHT22;35673;51.482;7.436;2023-04-19T05:46:46;10.20;73.70
49777;DHT22;35673;51.482;7.436;2023-04-19T05:49:14;10.20;73.80
49777;DHT22;35673;51.482;7.436;2023-04-19T05:51:39;10.20;73.10
49777;DHT22;35673;51.482;7.436;2023-04-19T05:54:05;10.30;73.10
49777;DHT22;35673;51.482;7.436;2023-04-19T05:56:30;10.30;72.40
49777;DHT22;35673;51.482;7.436;2023-04-19T05:58:56;10.30;72.20
49777;DHT22;35673;51.482;7.436;2023-04-19T06:01:22;10.40;71.60
49777;DHT22;35673;51.482;7.436;2023-04-19T06:03:48;10.40;71.20
49777;DHT22;35673;51.482;7.436;2023-04-19T06:06:17;10.50;70.80
49777;DHT22;35673;51.482;7.436;2023-04-19T06:08:43;10.60;70.10
49777;DHT22;35673;51.482;7.436;2023-04-19T06:11:09;10.60;69.30
49777;DHT22;35673;51.482;7.436;2023-04-19T06:13:35;10.60;69.10
49777;DHT22;35673;51.482;7.436;2023-04-19T06:16:01;10.60;68.50
49777;DHT22;35673;51.482;7.436;2023-04-19T06:18:27;10.60;68.20
49777;DHT22;35673;51.482;7.436;2023-04-19T06:20:52;10.60;67.70
49777;DHT22;35673;51.482;7.436;2023-04-19T06:23:18;10.60;67.50
49777;DHT22;35673;51.482;7.436;2023-04-19T06:25:45;10.60;66.80
49777;DHT22;35673;51.482;7.436;2023-04-19T06:28:13;10.60;66.60
49777;DHT22;35673;51.482;7.436;2023-04-19T06:30:38;10.50;66.70
49777;DHT22;35673;51.482;7.436;2023-04-19T06:33:04;10.50;66.80
49777;DHT22;35673;51.482;7.436;2023-04-19T06:35:30;10.40;66.20
49777;DHT22;35673;51.482;7.436;2023-04-19T06:37:56;10.30;66.20
49777;DHT22;35673;51.482;7.436;2023-04-19T06:40:21;10.40;66.20
49777;DHT22;35673;51.482;7.436;2023-04-19T06:42:47;10.40;66.10
49777;DHT22;35673;51.482;7.436;2023-04-19T06:45:12;10.50;65.70
49777;DHT22;35673;51.482;7.436;2023-04-19T06:47:39;10.60;65.70
49777;DHT22;35673;51.482;7.436;2023-04-19T06:50:05;10.60;64.90
49777;DHT22;35673;51.482;7.436;2023-04-19T06:52:30;10.70;64.90
49777;DHT22;35673;51.482;7.436;2023-04-19T06:54:56;10.80;65.00
49777;DHT22;35673;51.482;7.436;2023-04-19T06:57:22;10.90;64.50
49777;DHT22;35673;51.482;7.436;2023-04-19T06:59:47;11.00;64.10
49777;DHT22;35673;51.482;7.436;2023-04-19T07:02:13;11.00;64.00
49777;DHT22;35673;51.482;7.436;2023-04-19T07:04:38;11.10;63.30
49777;DHT22;35673;51.482;7.436;2023-04-19T07:07:04;11.10;63.10
49777;DHT22;35673;51.482;7.436;2023-04-19T07:09:31;11.10;63.00
49777;DHT22;35673;51.482;7.436;2023-04-19T07:11:56;11.10;62.60
49777;DHT22;35673;51.482;7.436;2023-04-19T07:14:22;11.20;62.70
49777;DHT22;35673;51.482;7.436;2023-04-19T07:16:48;11.30;62.80
49777;DHT22;35673;51.482;7.436;2023-04-19T07:19:13;11.30;62.30
49777;DHT22;35673;51.482;7.436;2023-04-19T07:21:39;11.30;62.50
49777;DHT22;35673;51.482;7.436;2023-04-19T07:24:05;11.40;62.10
49777;DHT22;35673;51.482;7.436;2023-04-19T07:26:31;11.60;62.00
49777;DHT22;35673;51.482;7.436;2023-04-19T07:28:58;11.70;61.60
49777;DHT22;35673;51.482;7.436;2023-04-19T07:31:24;11.80;62.00
49777;DHT22;35673;51.482;7.436;2023-04-19T07:33:50;11.80;61.40
49777;DHT22;35673;51.482;7.436;2023-04-19T07:36:15;11.80;60.70
49777;DHT22;35673;51.482;7.436;2023-04-19T07:38:41;11.80;61.70
49777;DHT22;35673;51.482;7.436;2023-04-19T07:41:07;11.90;61.30
49777;DHT22;35673;51.482;7.436;2023-04-19T07:43:33;11.90;60.50
49777;DHT22;35673;51.482;7.436;2023-04-19T07:45:59;12.00;60.30
49777;DHT22;35673;51.482;7.436;2023-04-19T07:48:24;12.10;60.30
49777;DHT22;35673;51.482;7.436;2023-04-19T07:50:50;12.10;60.20
49777;DHT22;35673;51.482;7.436;2023-04-19T07:53:15;12.10;60.50
49777;DHT22;35673;51.482;7.436;2023-04-19T07:55:41;12.20;60.50
49777;DHT22;35673;51.482;7.436;2023-04-19T07:58:06;12.30;60.00
49777;DHT22;35673;51.482;7.436;2023-04-19T08:00:32;12.40;59.40
49777;DHT22;35673;51.482;7.436;2023-04-19T08:03:01;12.50;59.00
49777;DHT22;35673;51.482;7.436;2023-04-19T08:05:26;12.70;58.30
49777;DHT22;35673;51.482;7.436;2023-04-19T08:07:52;12.90;58.30
49777;DHT22;35673;51.482;7.436;2023-04-19T08:10:17;13.10;58.20
49777;DHT22;35673;51.482;7.436;2023-04-19T08:12:43;13.20;58.80
49777;DHT22;35673;51.482;7.436;2023-04-19T08:15:09;13.30;58.10
49777;DHT22;35673;51.482;7.436;2023-04-19T08:17:34;13.30;58.30
49777;DHT22;35673;51.482;7.436;2023-04-19T08:20:00;13.10;59.70
49777;DHT22;35673;51.482;7.436;2023-04-19T08:22:26;13.10;57.70
49777;DHT22;35673;51.482;7.436;2023-04-19T08:24:51;13.20;58.10
49777;DHT22;35673;51.482;7.436;2023-04-19T08:27:17;13.30;57.50
49777;DHT22;35673;51.482;7.436;2023-04-19T08:29:43;13.30;57.10
49777;DHT22;35673;51.482;7.436;2023-04-19T08:32:09;13.20;58.30
49777;DHT22;35673;51.482;7.436;2023-04-19T08:34:35;13.30;57.50
49777;DHT22;35673;51.482;7.436;2023-04-19T08:37:01;13.60;57.00
49777;DHT22;35673;51.482;7.436;2023-04-19T08:39:27;13.80;56.40
49777;DHT22;35673;51.482;7.436;2023-04-19T08:41:54;13.90;57.20
49777;DHT22;35673;51.482;7.436;2023-04-19T08:44:20;13.80;57.10
49777;DHT22;35673;51.482;7.436;2023-04-19T08:46:47;13.70;55.20
49777;DHT22;35673;51.482;7.436;2023-04-19T08:49:15;13.60;57.00
49777;DHT22;35673;51.482;7.436;2023-04-19T08:51:40;13.80;56.50
49777;DHT22;35673;51.482;7.436;2023-04-19T08:54:07;13.80;56.60
49777;DHT22;35673;51.482;7.436;2023-04-19T08:56:33;13.80;56.00
49777;DHT22;35673;51.482;7.436;2023-04-19T08:58:58;14.00;56.00
49777;DHT22;35673;51.482;7.436;2023-04-19T09:01:24;14.20;54.60
49777;DHT22;35673;51.482;7.436;2023-04-19T09:03:49;14.40;54.50
49777;DHT22;35673;51.482;7.436;2023-04-19T09:06:15;14.50;53.60
49777;DHT22;35673;51.482;7.436;2023-04-19T09:08:41;14.70;53.90
49777;DHT22;35673;51.482;7.436;2023-04-19T09:11:06;14.90;54.30
49777;DHT22;35673;51.482;7.436;2023-04-19T09:13:32;15.10;52.80
49777;DHT22;35673;51.482;7.436;2023-04-19T09:15:58;14.90;52.70
49777;DHT22;35673;51.482;7.436;2023-04-19T09:18:29;15.00;52.30
49777;DHT22;35673;51.482;7.436;2023-04-19T09:20:54;15.10;52.50
49777;DHT22;35673;51.482;7.436;2023-04-19T09:23:23;15.40;52.10
49777;DHT22;35673;51.482;7.436;2023-04-19T09:25:51;15.60;51.10
49777;DHT22;35673;51.482;7.436;2023-04-19T09:28:16;15.70;50.40
49777;DHT22;35673;51.482;7.436;2023-04-19T09:30:42;15.60;51.30
49777;DHT22;35673;51.482;7.436;2023-04-19T09:33:07;15.60;51.30
49777;DHT22;35673;51.482;7.436;2023-04-19T09:38:05;15.70;49.70
49777;DHT22;35673;51.482;7.436;2023-04-19T09:40:31;15.60;51.20
49777;DHT22;35673;51.482;7.436;2023-04-19T09:42:56;15.60;54.80
49777;DHT22;35673;51.482;7.436;2023-04-19T09:45:22;15.50;51.60
49777;DHT22;35673;51.482;7.436;2023-04-19T09:48:04;15.40;51.60
49777;DHT22;35673;51.482;7.436;2023-04-19T09:50:29;15.70;50.90
49777;DHT22;35673;51.482;7.436;2023-04-19T09:52:56;16.10;50.10
49777;DHT22;35673;51.482;7.436;2023-04-19T09:55:22;16.20;49.50
49777;DHT22;35673;51.482;7.436;2023-04-19T09:57:48;16.20;49.90
49777;DHT22;35673;51.482;7.436;2023-04-19T10:00:15;16.20;50.30
49777;DHT22;35673;51.482;7.436;2023-04-19T10:02:40;16.20;50.40
49777;DHT22;35673;51.482;7.436;2023-04-19T10:05:07;16.10;49.50
49777;DHT22;35673;51.482;7.436;2023-04-19T10:07:33;16.20;51.40
49777;DHT22;35673;51.482;7.436;2023-04-19T10:10:00;16.20;50.50
49777;DHT22;35673;51.482;7.436;2023-04-19T10:12:26;16.50;51.30
49777;DHT22;35673;51.482;7.436;2023-04-19T10:14:55;16.90;49.70
49777;DHT22;35673;51.482;7.436;2023-04-19T10:17:22;17.00;48.80
49777;DHT22;35673;51.482;7.436;2023-04-19T10:19:55;17.30;49.70
49777;DHT22;35673;51.482;7.436;2023-04-19T10:22:23;17.40;48.30
49777;DHT22;35673;51.482;7.436;2023-04-19T10:27:37;17.70;47.60
49777;DHT22;35673;51.482;7.436;2023-04-19T10:30:03;17.20;51.30
49777;DHT22;35673;51.482;7.436;2023-04-19T10:32:43;16.70;49.90
49777;DHT22;35673;51.482;7.436;2023-04-19T10:35:19;16.70;48.30
49777;DHT22;35673;51.482;7.436;2023-04-19T10:43:13;16.60;48.70
49777;DHT22;35673;51.482;7.436;2023-04-19T10:45:39;16.40;52.60
49777;DHT22;35673;51.482;7.436;2023-04-19T10:48:05;16.40;49.50
49777;DHT22;35673;51.482;7.436;2023-04-19T10:50:56;16.70;47.20
49777;DHT22;35673;51.482;7.436;2023-04-19T10:56:00;17.50;46.30
49777;DHT22;35673;51.482;7.436;2023-04-19T10:58:25;17.60;46.00
49777;DHT22;35673;51.482;7.436;2023-04-19T11:01:13;17.70;45.30
49777;DHT22;35673;51.482;7.436;2023-04-19T11:03:55;17.90;46.00
49777;DHT22;35673;51.482;7.436;2023-04-19T11:06:21;17.90;48.30
49777;DHT22;35673;51.482;7.436;2023-04-19T11:08:51;17.80;47.60
49777;DHT22;35673;51.482;7.436;2023-04-19T11:11:17;17.90;46.60
49777;DHT22;35673;51.482;7.436;2023-04-19T11:13:43;17.80;45.90
49777;DHT22;35673;51.482;7.436;2023-04-19T11:16:12;17.50;47.90
49777;DHT22;35673;51.482;7.436;2023-04-19T11:18:37;18.10;46.10
49777;DHT22;35673;51.482;7.436;2023-04-19T11:21:03;19.30;45.20
49777;DHT22;35673;51.482;7.436;2023-04-19T11:23:29;20.70;43.50
49777;DHT22;35673;51.482;7.436;2023-04-19T11:25:54;21.20;42.50
49777;DHT22;35673;51.482;7.436;2023-04-19T11:28:20;21.80;42.20
49777;DHT22;35673;51.482;7.436;2023-04-19T11:30:48;22.40;41.30
49777;DHT22;35673;51.482;7.436;2023-04-19T11:33:14;22.60;40.40
49777;DHT22;35673;51.482;7.436;2023-04-19T11:35:39;22.40;41.20
49777;DHT22;35673;51.482;7.436;2023-04-19T11:38:05;22.20;39.80
49777;DHT22;35673;51.482;7.436;2023-04-19T11:40:31;21.80;41.50
49777;DHT22;35673;51.482;7.436;2023-04-19T11:42:57;21.90;42.10
49777;DHT22;35673;51.482;7.436;2023-04-19T11:45:27;21.50;42.00
49777;DHT22;35673;51.482;7.436;2023-04-19T11:47:53;20.30;42.40
49777;DHT22;35673;51.482;7.436;2023-04-19T11:50:38;20.00;44.00
49777;DHT22;35673;51.482;7.436;2023-04-19T11:53:14;19.70;44.70
49777;DHT22;35673;51.482;7.436;2023-04-19T11:55:41;19.20;45.90
49777;DHT22;35673;51.482;7.436;2023-04-19T11:58:06;18.80;45.70
49777;DHT22;35673;51.482;7.436;2023-04-19T12:00:35;18.70;46.70
49777;DHT22;35673;51.482;7.436;2023-04-19T12:03:00;18.60;46.80
49777;DHT22;35673;51.482;7.436;2023-04-19T12:05:26;18.70;46.60
49777;DHT22;35673;51.482;7.436;2023-04-19T12:08:01;19.00;47.10
49777;DHT22;35673;51.482;7.436;2023-04-19T12:10:28;19.00;46.70
49777;DHT22;35673;51.482;7.436;2023-04-19T12:12:54;18.90;45.00
49777;DHT22;35673;51.482;7.436;2023-04-19T12:15:19;19.10;46.40
49777;DHT22;35673;51.482;7.436;2023-04-19T12:17:55;19.80;43.50
49777;DHT22;35673;51.482;7.436;2023-04-19T12:20:34;20.80;43.40
49777;DHT22;35673;51.482;7.436;2023-04-19T12:23:00;22.60;41.20
49777;DHT22;35673;51.482;7.436;2023-04-19T12:25:32;24.30;39.80
49777;DHT22;35673;51.482;7.436;2023-04-19T12:28:02;25.30;38.90
49777;DHT22;35673;51.482;7.436;2023-04-19T12:30:28;25.90;36.00
49777;DHT22;35673;51.482;7.436;2023-04-19T12:32:54;25.70;37.70
49777;DHT22;35673;51.482;7.436;2023-04-19T12:35:20;25.40;39.40
49777;DHT22;35673;51.482;7.436;2023-04-19T12:37:47;25.10;38.90
49777;DHT22;35673;51.482;7.436;2023-04-19T12:40:12;25.20;39.10
49777;DHT22;35673;51.482;7.436;2023-04-19T12:42:38;25.30;39.20
49777;DHT22;35673;51.482;7.436;2023-04-19T12:45:03;25.60;43.60
49777;DHT22;35673;51.482;7.436;2023-04-19T12:47:29;24.60;41.80
49777;DHT22;35673;51.482;7.436;2023-04-19T12:49:55;24.40;40.90
49777;DHT22;35673;51.482;7.436;2023-04-19T12:52:22;25.30;40.00
49777;DHT22;35673;51.482;7.436;2023-04-19T12:54:47;25.90;38.70
49777;DHT22;35673;51.482;7.436;2023-04-19T12:57:13;26.30;37.20
49777;DHT22;35673;51.482;7.436;2023-04-19T12:59:39;26.80;35.00
49777;DHT22;35673;51.482;7.436;2023-04-19T13:02:05;27.10;35.40
49777;DHT22;35673;51.482;7.436;2023-04-19T13:04:31;27.20;34.50
49777;DHT22;35673;51.482;7.436;2023-04-19T13:06:57;27.00;34.60
49777;DHT22;35673;51.482;7.436;2023-04-19T13:09:22;27.20;35.90
49777;DHT22;35673;51.482;7.436;2023-04-19T13:11:48;27.70;34.60
49777;DHT22;35673;51.482;7.436;2023-04-19T13:14:13;28.00;35.70
49777;DHT22;35673;51.482;7.436;2023-04-19T13:16:39;29.10;34.40
49777;DHT22;35673;51.482;7.436;2023-04-19T13:19:04;29.40;35.80
49777;DHT22;35673;51.482;7.436;2023-04-19T13:21:30;29.70;35.20
49777;DHT22;35673;51.482;7.436;2023-04-19T13:23:59;30.00;37.20
49777;DHT22;35673;51.482;7.436;2023-04-19T13:26:24;30.00;39.70
49777;DHT22;35673;51.482;7.436;2023-04-19T13:28:51;30.10;38.10
49777;DHT22;35673;51.482;7.436;2023-04-19T13:31:17;30.80;33.20
49777;DHT22;35673;51.482;7.436;2023-04-19T13:33:43;31.70;34.70
49777;DHT22;35673;51.482;7.436;2023-04-19T13:36:08;32.10;33.20
49777;DHT22;35673;51.482;7.436;2023-04-19T13:38:34;32.30;30.10
49777;DHT22;35673;51.482;7.436;2023-04-19T13:41:01;32.30;33.10
49777;DHT22;35673;51.482;7.436;2023-04-19T13:43:27;32.70;37.10
49777;DHT22;35673;51.482;7.436;2023-04-19T13:45:53;33.00;33.50
49777;DHT22;35673;51.482;7.436;2023-04-19T13:48:18;33.10;34.60
49777;DHT22;35673;51.482;7.436;2023-04-19T13:50:44;33.70;34.00
49777;DHT22;35673;51.482;7.436;2023-04-19T13:53:10;34.30;33.50
49777;DHT22;35673;51.482;7.436;2023-04-19T13:55:35;35.00;32.70
49777;DHT22;35673;51.482;7.436;2023-04-19T13:58:01;33.80;34.60
49777;DHT22;35673;51.482;7.436;2023-04-19T14:00:26;33.40;38.20
49777;DHT22;35673;51.482;7.436;2023-04-19T14:02:52;32.80;37.70
49777;DHT22;35673;51.482;7.436;2023-04-19T14:05:18;32.40;36.00
49777;DHT22;35673;51.482;7.436;2023-04-19T14:07:44;32.40;37.50
49777;DHT22;35673;51.482;7.436;2023-04-19T14:10:10;32.40;38.70
49777;DHT22;35673;51.482;7.436;2023-04-19T14:12:36;32.80;36.40
49777;DHT22;35673;51.482;7.436;2023-04-19T14:15:01;33.40;32.00
49777;DHT22;35673;51.482;7.436;2023-04-19T14:19:53;35.00;31.50
49777;DHT22;35673;51.482;7.436;2023-04-19T14:22:19;35.50;33.90
49777;DHT22;35673;51.482;7.436;2023-04-19T14:24:44;35.00;34.00
49777;DHT22;35673;51.482;7.436;2023-04-19T14:27:11;35.20;33.40
49777;DHT22;35673;51.482;7.436;2023-04-19T14:29:36;35.60;33.30
49777;DHT22;35673;51.482;7.436;2023-04-19T14:32:02;34.60;38.30
49777;DHT22;35673;51.482;7.436;2023-04-19T14:34:27;33.90;35.10
49777;DHT22;35673;51.482;7.436;2023-04-19T14:36:53;34.20;34.30
49777;DHT22;35673;51.482;7.436;2023-04-19T14:39:18;34.20;33.90
49777;DHT22;35673;51.482;7.436;2023-04-19T14:41:44;34.80;33.50
49777;DHT22;35673;51.482;7.436;2023-04-19T14:44:10;36.00;30.60
49777;DHT22;35673;51.482;7.436;2023-04-19T14:46:35;37.00;31.80
49777;DHT22;35673;51.482;7.436;2023-04-19T14:49:01;36.10;29.90
49777;DHT22;35673;51.482;7.436;2023-04-19T14:51:30;36.10;33.20
49777;DHT22;35673;51.482;7.436;2023-04-19T14:53:57;36.30;35.80
49777;DHT22;35673;51.482;7.436;2023-04-19T14:56:22;36.20;33.10
49777;DHT22;35673;51.482;7.436;2023-04-19T14:58:48;35.50;33.50
49777;DHT22;35673;51.482;7.436;2023-04-19T15:01:14;36.30;35.60
49777;DHT22;35673;51.482;7.436;2023-04-19T15:03:39;36.40;35.60
49777;DHT22;35673;51.482;7.436;2023-04-19T15:06:08;36.20;32.60
49777;DHT22;35673;51.482;7.436;2023-04-19T15:08:34;36.30;31.90
49777;DHT22;35673;51.482;7.436;2023-04-19T15:10:59;36.70;30.70
49777;DHT22;35673;51.482;7.436;2023-04-19T15:13:25;36.90;30.90
49777;DHT22;35673;51.482;7.436;2023-04-19T15:15:51;36.20;33.60
49777;DHT22;35673;51.482;7.436;2023-04-19T15:18:16;36.10;33.10
49777;DHT22;35673;51.482;7.436;2023-04-19T15:20:42;35.10;32.40
49777;DHT22;35673;51.482;7.436;2023-04-19T15:23:07;30.60;37.10
49777;DHT22;35673;51.482;7.436;2023-04-19T15:25:33;28.90;39.60
49777;DHT22;35673;51.482;7.436;2023-04-19T15:27:59;29.70;38.30
49777;DHT22;35673;51.482;7.436;2023-04-19T15:30:25;30.60;35.80
49777;DHT22;35673;51.482;7.436;2023-04-19T15:32:50;32.60;32.60
49777;DHT22;35673;51.482;7.436;2023-04-19T15:35:16;31.10;32.20
49777;DHT22;35673;51.482;7.436;2023-04-19T15:37:41;31.00;33.00
49777;DHT22;35673;51.482;7.436;2023-04-19T15:40:08;30.20;33.50